Time;durP1;ratioP1;P1;durP2;ratioP2;P2;SDS_P1;SDS_P2;PMS_P1;PMS_P2;Temp;Humidity;BMP_temperature;BMP_pressure;BME280_temperature;BME280_humidity;BME280_pressure;Samples;Min_cycle;Max_cycle;Signal;HPM_P1;HPM_P2
2021/01/07 00:00:49;;;;;;;5.53;4.70;;;6.20;99.90;;;;;;5014744;28;20091;-74
2021/01/07 00:03:15;;;;;;;4.78;3.80;;;6.10;99.90;;;;;;5012986;28;20021;-75
2021/01/07 00:05:40;;;;;;;5.35;4.40;;;6.20;99.90;;;;;;5015960;28;20037;-74
2021/01/07 00:08:06;;;;;;;7.68;4.43;;;6.10;99.90;;;;;;5017027;28;20021;-74
2021/01/07 00:10:32;;;;;;;8.00;4.65;;;6.10;99.90;;;;;;5015989;28;20040;-74
2021/01/07 00:12:58;;;;;;;6.15;5.25;;;6.00;99.90;;;;;;5016227;28;20026;-74
2021/01/07 00:15:24;;;;;;;9.25;6.35;;;6.00;99.90;;;;;;5014811;28;20029;-75
2021/01/07 00:17:49;;;;;;;9.13;6.47;;;6.10;99.90;;;;;;5015198;28;20034;-74
2021/01/07 00:20:15;;;;;;;9.05;4.93;;;6.20;99.90;;;;;;5015518;28;20034;-74
2021/01/07 00:22:41;;;;;;;8.60;5.10;;;6.30;99.90;;;;;;5014522;28;20364;-74
2021/01/07 00:25:08;;;;;;;8.00;5.28;;;6.20;99.90;;;;;;4998578;28;20037;-74
2021/01/07 00:27:35;;;;;;;9.07;5.47;;;6.30;99.90;;;;;;5019460;28;20034;-74
2021/01/07 00:30:02;;;;;;;5.85;5.25;;;6.30;99.90;;;;;;5018227;28;20069;-74
2021/01/07 00:32:28;;;;;;;14.40;6.22;;;6.40;99.90;;;;;;5017226;28;20026;-73
2021/01/07 00:34:54;;;;;;;6.45;5.72;;;6.40;99.90;;;;;;5017648;28;20037;-77
2021/01/07 00:37:20;;;;;;;7.28;6.07;;;6.40;99.90;;;;;;5014915;28;20117;-75
2021/01/07 00:39:45;;;;;;;6.22;5.22;;;6.30;99.90;;;;;;5021601;28;20030;-74
2021/01/07 00:42:11;;;;;;;7.47;6.15;;;6.20;99.90;;;;;;5019305;28;20029;-74
2021/01/07 00:44:37;;;;;;;7.28;6.40;;;6.20;99.90;;;;;;5020981;28;20032;-74
2021/01/07 00:47:03;;;;;;;10.82;6.15;;;6.30;99.90;;;;;;5020059;28;20049;-75
2021/01/07 00:49:28;;;;;;;12.00;6.82;;;6.40;99.90;;;;;;5021289;28;20022;-74
2021/01/07 00:51:54;;;;;;;9.10;6.40;;;6.40;99.90;;;;;;5018695;28;20102;-74
2021/01/07 00:54:22;;;;;;;7.68;6.88;;;6.50;99.90;;;;;;5021157;28;20030;-74
2021/01/07 00:56:48;;;;;;;10.20;8.23;;;6.40;99.90;;;;;;5021201;28;20026;-74
2021/01/07 00:59:14;;;;;;;8.45;7.35;;;6.30;99.90;;;;;;5020465;28;20470;-75
2021/01/07 01:01:44;;;;;;;14.38;8.00;;;6.40;99.90;;;;;;5017314;28;20029;-74
2021/01/07 01:04:11;;;;;;;10.07;8.52;;;6.30;99.90;;;;;;5016431;28;20026;-75
2021/01/07 01:06:36;;;;;;;13.35;10.00;;;6.20;99.90;;;;;;5017172;28;20053;-76
2021/01/07 01:09:04;;;;;;;12.90;8.65;;;6.10;99.90;;;;;;5022204;28;20021;-75
2021/01/07 01:11:36;;;;;;;15.52;9.38;;;6.10;99.90;;;;;;5022768;28;20037;-74
2021/01/07 01:14:02;;;;;;;12.70;9.15;;;5.80;99.90;;;;;;5021670;28;20041;-75
2021/01/07 01:16:28;;;;;;;10.48;8.85;;;5.70;99.90;;;;;;5020831;28;20022;-75
2021/01/07 01:18:54;;;;;;;14.23;10.27;;;5.50;99.90;;;;;;5020811;28;20030;-74
2021/01/07 01:21:20;;;;;;;16.67;11.85;;;5.50;99.90;;;;;;5021594;28;20029;-74
2021/01/07 01:23:45;;;;;;;15.98;11.48;;;5.40;99.90;;;;;;5019455;28;20045;-75
2021/01/07 01:26:11;;;;;;;14.65;10.45;;;5.40;99.90;;;;;;5020030;28;20029;-74
2021/01/07 01:28:37;;;;;;;18.10;10.88;;;5.50;99.90;;;;;;5020045;28;20053;-75
2021/01/07 01:31:03;;;;;;;14.63;9.77;;;5.50;99.90;;;;;;5020497;28;20705;-74
2021/01/07 01:33:29;;;;;;;11.85;9.75;;;5.40;99.90;;;;;;5022055;28;20046;-74
2021/01/07 01:35:55;;;;;;;13.65;7.53;;;5.40;99.90;;;;;;5020813;28;20036;-74
2021/01/07 01:38:21;;;;;;;16.30;7.68;;;5.20;99.90;;;;;;5013719;28;20019;-74
2021/01/07 01:40:47;;;;;;;13.63;7.85;;;5.20;99.90;;;;;;5018776;28;20037;-74
2021/01/07 01:43:12;;;;;;;11.60;9.05;;;5.20;99.90;;;;;;5021950;28;20421;-74
2021/01/07 01:45:38;;;;;;;9.90;6.97;;;5.10;99.90;;;;;;5019528;28;20096;-74
2021/01/07 01:48:05;;;;;;;9.23;6.70;;;5.10;99.90;;;;;;5011199;28;20028;-75
2021/01/07 01:50:30;;;;;;;6.05;4.68;;;5.10;99.90;;;;;;5019859;28;20030;-74
2021/01/07 01:52:56;;;;;;;7.43;5.47;;;5.10;99.90;;;;;;5020119;28;20113;-74
2021/01/07 01:55:25;;;;;;;6.10;4.65;;;5.10;99.90;;;;;;5019651;28;20045;-74
2021/01/07 01:57:51;;;;;;;4.78;3.67;;;5.20;99.90;;;;;;5019930;28;20126;-74
2021/01/07 02:00:17;;;;;;;4.10;2.75;;;5.20;99.90;;;;;;5020824;28;20022;-74
2021/01/07 02:02:43;;;;;;;3.00;2.70;;;5.30;99.90;;;;;;5020338;28;20041;-74
2021/01/07 02:05:10;;;;;;;6.03;2.80;;;5.30;99.90;;;;;;5020733;28;20026;-74
2021/01/07 02:07:39;;;;;;;3.70;2.67;;;5.30;99.90;;;;;;5021067;28;20044;-74
2021/01/07 02:10:07;;;;;;;2.40;2.15;;;5.40;99.90;;;;;;5020785;28;20497;-74
2021/01/07 02:12:35;;;;;;;3.10;2.30;;;5.40;99.90;;;;;;5020137;28;20478;-74
2021/01/07 02:15:01;;;;;;;4.55;2.00;;;5.50;99.90;;;;;;5019462;28;20018;-74
2021/01/07 02:17:26;;;;;;;2.88;2.55;;;5.50;99.90;;;;;;5014975;28;20056;-74
2021/01/07 02:19:57;;;;;;;4.18;2.53;;;5.40;99.90;;;;;;5016241;28;20018;-74
2021/01/07 02:22:23;;;;;;;3.05;2.75;;;5.40;99.90;;;;;;5012544;28;20022;-74
2021/01/07 02:24:50;;;;;;;2.85;2.28;;;5.40;99.90;;;;;;5014182;28;20110;-74
2021/01/07 02:27:16;;;;;;;2.75;2.17;;;5.40;99.90;;;;;;5013072;28;20485;-75
2021/01/07 02:29:41;;;;;;;4.70;3.33;;;5.40;99.90;;;;;;5011194;28;20062;-74
2021/01/07 02:32:07;;;;;;;6.10;3.72;;;5.50;99.90;;;;;;5012409;28;20512;-74
2021/01/07 02:34:34;;;;;;;4.18;2.95;;;5.50;99.90;;;;;;5012161;28;20036;-74
2021/01/07 02:37:00;;;;;;;4.90;3.17;;;5.50;99.90;;;;;;5012032;28;20457;-74
2021/01/07 02:39:26;;;;;;;3.22;2.90;;;5.50;99.90;;;;;;5011719;28;20014;-74
2021/01/07 02:41:53;;;;;;;4.53;3.22;;;5.40;99.90;;;;;;5012344;28;20690;-74
2021/01/07 02:44:20;;;;;;;4.28;3.63;;;5.50;99.90;;;;;;5014059;28;20026;-75
2021/01/07 02:46:47;;;;;;;5.55;3.83;;;5.50;99.90;;;;;;5013020;28;20520;-74
2021/01/07 02:49:13;;;;;;;5.63;3.75;;;5.40;99.90;;;;;;5014459;28;20095;-74
2021/01/07 02:51:38;;;;;;;3.80;3.20;;;5.30;99.90;;;;;;5014248;28;20070;-75
2021/01/07 02:54:06;;;;;;;6.40;3.47;;;5.20;99.90;;;;;;5015030;28;20101;-74
2021/01/07 02:56:32;;;;;;;6.30;3.95;;;5.20;99.90;;;;;;5016077;28;20226;-74
2021/01/07 02:58:59;;;;;;;4.30;3.10;;;5.20;99.90;;;;;;5015568;28;20625;-74
2021/01/07 03:01:24;;;;;;;4.28;3.40;;;5.20;99.90;;;;;;5010591;28;20105;-74
2021/01/07 03:03:50;;;;;;;4.07;2.90;;;5.30;99.90;;;;;;5011875;28;20449;-75
2021/01/07 03:06:16;;;;;;;6.22;3.42;;;5.20;99.90;;;;;;5010922;28;20033;-74
2021/01/07 03:08:42;;;;;;;7.15;3.13;;;5.20;99.90;;;;;;5012201;28;20052;-74
2021/01/07 03:11:09;;;;;;;3.60;3.22;;;5.10;99.90;;;;;;5016750;28;20021;-74
2021/01/07 03:13:35;;;;;;;4.80;3.60;;;5.10;99.90;;;;;;5017549;28;20061;-74
2021/01/07 03:16:01;;;;;;;6.57;4.65;;;5.10;99.90;;;;;;5020137;28;20022;-74
2021/01/07 03:18:27;;;;;;;6.10;3.88;;;5.20;99.90;;;;;;5017830;28;20038;-74
2021/01/07 03:20:52;;;;;;;5.88;3.90;;;5.20;99.90;;;;;;5018285;28;20024;-74
2021/01/07 03:23:18;;;;;;;4.68;4.10;;;5.20;99.90;;;;;;5013769;28;20026;-74
2021/01/07 03:25:44;;;;;;;5.10;3.40;;;5.30;99.90;;;;;;5011499;28;20094;-74
2021/01/07 03:28:10;;;;;;;5.13;3.60;;;5.30;99.90;;;;;;5014140;28;20042;-74
2021/01/07 03:30:36;;;;;;;6.55;4.90;;;5.20;99.90;;;;;;5013839;28;20045;-74
2021/01/07 03:33:02;;;;;;;5.05;4.07;;;5.20;99.90;;;;;;5016504;28;20041;-74
2021/01/07 03:35:28;;;;;;;5.57;4.60;;;5.30;99.90;;;;;;5016897;28;20041;-74
2021/01/07 03:37:54;;;;;;;5.45;4.20;;;5.20;99.90;;;;;;5016155;28;20018;-74
2021/01/07 03:40:20;;;;;;;6.38;4.88;;;5.30;99.90;;;;;;5015308;28;20032;-74
2021/01/07 03:42:46;;;;;;;7.18;5.10;;;5.30;99.90;;;;;;5013236;28;20038;-75
2021/01/07 03:45:12;;;;;;;6.40;5.30;;;5.40;99.90;;;;;;5014669;28;20029;-75
2021/01/07 03:47:38;;;;;;;9.05;6.25;;;5.50;99.90;;;;;;5011287;28;20022;-74
2021/01/07 03:50:04;;;;;;;7.25;5.22;;;5.40;99.90;;;;;;5014207;28;20080;-74
2021/01/07 03:52:30;;;;;;;7.82;5.40;;;5.30;99.90;;;;;;5015116;28;20096;-74
2021/01/07 03:54:56;;;;;;;8.30;5.82;;;5.30;99.90;;;;;;5016185;28;20429;-74
2021/01/07 03:57:22;;;;;;;8.82;6.20;;;5.30;99.90;;;;;;5012981;28;20022;-74
2021/01/07 03:59:48;;;;;;;7.43;6.07;;;5.40;99.90;;;;;;5015536;28;20064;-74
2021/01/07 04:02:14;;;;;;;7.63;5.93;;;5.40;99.90;;;;;;5009726;28;20434;-74
2021/01/07 04:04:40;;;;;;;10.10;6.93;;;5.40;99.90;;;;;;5013533;28;20117;-74
2021/01/07 04:07:06;;;;;;;8.55;6.50;;;5.40;99.90;;;;;;5016013;28;20041;-74
2021/01/07 04:09:32;;;;;;;9.68;6.95;;;5.40;99.90;;;;;;5015201;28;20030;-74
2021/01/07 04:11:57;;;;;;;9.45;7.10;;;5.40;99.90;;;;;;5014964;28;20045;-74
2021/01/07 04:14:23;;;;;;;10.07;7.05;;;5.40;99.90;;;;;;5014024;28;20112;-74
2021/01/07 04:16:49;;;;;;;14.50;7.68;;;5.40;99.90;;;;;;5012501;28;20025;-74
2021/01/07 04:19:15;;;;;;;10.10;6.93;;;5.40;99.90;;;;;;5014533;28;20029;-74
2021/01/07 04:21:47;;;;;;;9.48;6.82;;;5.40;99.90;;;;;;5013311;28;20021;-74
2021/01/07 04:24:16;;;;;;;;;;;5.40;99.90;;;;;;5010641;28;20512;-74
2021/01/07 04:26:43;;;;;;;10.00;6.43;;;5.40;99.90;;;;;;5015393;28;19932;-74
2021/01/07 04:29:10;;;;;;;10.20;6.88;;;5.40;99.90;;;;;;5015076;28;20084;-75
2021/01/07 04:31:39;;;;;;;11.80;7.18;;;5.40;99.90;;;;;;5014979;28;20040;-74
2021/01/07 04:34:06;;;;;;;8.07;7.18;;;5.50;99.90;;;;;;5013663;28;20272;-74
2021/01/07 04:36:32;;;;;;;9.93;8.02;;;5.50;99.90;;;;;;5015019;28;20022;-75
2021/01/07 04:38:58;;;;;;;7.90;6.63;;;5.60;99.90;;;;;;5014529;28;20030;-74
2021/01/07 04:41:24;;;;;;;11.77;7.88;;;5.60;99.90;;;;;;5014343;28;20490;-74
2021/01/07 04:43:59;;;;;;;9.88;8.00;;;5.70;99.90;;;;;;5014971;28;20022;-74
2021/01/07 04:46:26;;;;;;;10.73;8.73;;;5.80;99.90;;;;;;5009597;28;20034;-75
2021/01/07 04:48:52;;;;;;;15.13;10.20;;;5.90;99.90;;;;;;5013596;28;20026;-74
2021/01/07 04:51:18;;;;;;;11.07;8.15;;;5.90;99.90;;;;;;5014506;28;20033;-75
2021/01/07 04:53:45;;;;;;;14.88;9.68;;;6.00;99.90;;;;;;5015588;28;20093;-74
2021/01/07 04:56:11;;;;;;;12.23;8.73;;;6.00;99.90;;;;;;5014223;28;20026;-74
2021/01/07 04:58:37;;;;;;;9.27;8.18;;;6.00;99.90;;;;;;5014766;28;20025;-74
2021/01/07 05:01:04;;;;;;;9.57;8.30;;;6.00;99.90;;;;;;5014098;28;20048;-74
2021/01/07 05:03:31;;;;;;;14.88;9.13;;;6.00;99.90;;;;;;5015941;28;20022;-74
2021/01/07 05:05:57;;;;;;;13.23;9.38;;;6.00;99.90;;;;;;5013690;28;20048;-74
2021/01/07 05:08:23;;;;;;;12.98;8.95;;;6.00;99.90;;;;;;5014492;28;20026;-76
2021/01/07 05:10:50;;;;;;;14.90;8.35;;;6.00;99.90;;;;;;5015563;28;20026;-74
2021/01/07 05:13:21;;;;;;;12.65;7.97;;;6.00;99.90;;;;;;5015341;28;20029;-74
2021/01/07 05:15:47;;;;;;;13.43;7.90;;;6.10;99.90;;;;;;5012915;28;20095;-74
2021/01/07 05:18:13;;;;;;;10.07;7.47;;;6.10;99.90;;;;;;5013695;28;20026;-74
2021/01/07 05:20:40;;;;;;;12.60;9.85;;;6.10;99.90;;;;;;5013841;28;20543;-74
2021/01/07 05:23:08;;;;;;;11.82;7.60;;;6.10;99.90;;;;;;5015151;28;20053;-74
2021/01/07 05:25:37;;;;;;;9.45;7.13;;;6.10;99.90;;;;;;5015411;28;20682;-74
2021/01/07 05:28:04;;;;;;;9.75;6.95;;;6.10;99.90;;;;;;5015620;28;20068;-74
2021/01/07 05:30:31;;;;;;;9.85;7.50;;;6.10;99.90;;;;;;5014774;28;20701;-74
2021/01/07 05:33:03;;;;;;;7.82;6.97;;;6.20;99.90;;;;;;5013347;28;20025;-74
2021/01/07 05:35:29;;;;;;;10.90;8.05;;;6.20;99.90;;;;;;5014752;28;20032;-74
2021/01/07 05:38:00;;;;;;;16.45;6.82;;;6.20;99.90;;;;;;5014082;28;20556;-74
2021/01/07 05:40:26;;;;;;;8.63;6.78;;;6.10;99.90;;;;;;5014670;28;20033;-74
2021/01/07 05:42:58;;;;;;;11.30;6.95;;;6.10;99.90;;;;;;5014379;28;20037;-74
2021/01/07 05:45:37;;;;;;;8.75;6.50;;;6.00;99.90;;;;;;5013030;28;20030;-74
2021/01/07 05:48:04;;;;;;;8.00;6.03;;;6.00;99.90;;;;;;5012288;28;20467;-74
2021/01/07 05:50:38;;;;;;;8.77;5.93;;;6.00;99.90;;;;;;5014314;28;20429;-74
2021/01/07 05:53:04;;;;;;;7.97;5.63;;;6.10;99.90;;;;;;5013523;28;20049;-74
2021/01/07 05:55:30;;;;;;;7.82;5.93;;;6.10;99.90;;;;;;5014016;28;20029;-75
2021/01/07 05:58:01;;;;;;;9.32;6.00;;;6.10;99.90;;;;;;5012370;28;20018;-74
2021/01/07 06:00:33;;;;;;;9.05;7.18;;;6.00;99.90;;;;;;5013505;28;20018;-74
2021/01/07 06:03:00;;;;;;;8.02;6.55;;;6.00;99.90;;;;;;5013644;28;20393;-74
2021/01/07 06:05:26;;;;;;;8.38;6.55;;;5.90;99.90;;;;;;5013687;28;20441;-74
2021/01/07 06:07:57;;;;;;;6.30;5.55;;;5.80;99.90;;;;;;5013892;28;20029;-75
2021/01/07 06:10:23;;;;;;;8.55;5.90;;;5.70;99.90;;;;;;5012360;28;20032;-74
2021/01/07 06:12:54;;;;;;;8.98;6.70;;;5.70;99.90;;;;;;5012565;28;20033;-74
2021/01/07 06:15:23;;;;;;;8.65;6.82;;;5.70;99.90;;;;;;5012348;28;20037;-75
2021/01/07 06:17:49;;;;;;;9.25;5.82;;;5.70;99.90;;;;;;5011229;28;20124;-76
2021/01/07 06:20:21;;;;;;;9.32;7.05;;;5.80;99.90;;;;;;5013519;28;20018;-76
2021/01/07 06:22:49;;;;;;;11.00;6.47;;;5.80;99.90;;;;;;5012957;28;20057;-75
2021/01/07 06:25:16;;;;;;;9.25;7.00;;;5.90;99.90;;;;;;5012880;28;20323;-76
2021/01/07 06:27:47;;;;;;;7.90;6.72;;;6.00;99.90;;;;;;5010909;28;20033;-76
2021/01/07 06:30:13;;;;;;;9.65;7.55;;;6.00;99.90;;;;;;5012012;28;20037;-75
2021/01/07 06:32:40;;;;;;;8.80;6.82;;;6.00;99.90;;;;;;5010740;28;20053;-76
2021/01/07 06:35:09;;;;;;;7.72;6.40;;;6.00;99.90;;;;;;5010303;28;20172;-76
2021/01/07 06:37:47;;;;;;;9.38;6.43;;;6.00;99.90;;;;;;5011471;28;20018;-76
2021/01/07 06:40:14;;;;;;;8.55;6.85;;;6.00;99.90;;;;;;5011271;28;20025;-76
2021/01/07 06:42:48;;;;;;;7.90;6.63;;;6.10;99.90;;;;;;5012782;28;20030;-74
2021/01/07 06:45:14;;;;;;;8.20;6.47;;;6.10;99.90;;;;;;4996054;28;20113;-76
2021/01/07 06:47:42;;;;;;;11.38;7.60;;;6.10;99.90;;;;;;5009857;28;20048;-75
2021/01/07 06:50:13;;;;;;;12.57;7.57;;;6.10;99.90;;;;;;5005350;28;20497;-76
2021/01/07 06:52:40;;;;;;;9.35;6.93;;;6.10;99.90;;;;;;5013466;28;20057;-76
2021/01/07 06:55:17;;;;;;;10.95;8.93;;;6.00;99.90;;;;;;5008817;28;20022;-76
2021/01/07 06:57:46;;;;;;;8.82;6.93;;;6.00;99.90;;;;;;5013011;28;20803;-72
2021/01/07 07:00:15;;;;;;;13.45;8.82;;;6.30;99.90;;;;;;5015868;28;20018;-72
2021/01/07 07:03:10;;;;;;;9.80;6.80;;;6.20;99.90;;;;;;5018207;28;20019;-72
2021/01/07 07:05:38;;;;;;;11.05;7.07;;;6.20;99.90;;;;;;5004548;28;20030;-73
2021/01/07 07:08:12;;;;;;;10.38;8.43;;;6.20;99.90;;;;;;5018087;28;20089;-73
2021/01/07 07:10:38;;;;;;;11.30;8.20;;;6.10;99.90;;;;;;5011611;28;20025;-74
2021/01/07 07:13:21;;;;;;;9.95;8.13;;;6.20;99.90;;;;;;5010913;28;20087;-74
2021/01/07 07:15:49;;;;;;;15.32;8.73;;;6.50;99.90;;;;;;5011299;28;20425;-73
2021/01/07 07:18:44;;;;;;;17.83;9.43;;;6.70;99.90;;;;;;5009085;28;20041;-73
2021/01/07 07:21:18;;;;;;;13.55;8.38;;;6.80;99.90;;;;;;4999470;28;20030;-74
2021/01/07 07:23:45;;;;;;;9.98;7.03;;;6.80;99.90;;;;;;5011922;28;20018;-74
2021/01/07 07:26:30;;;;;;;11.00;6.63;;;6.80;99.90;;;;;;5011600;28;20105;-73
2021/01/07 07:28:56;;;;;;;12.50;7.43;;;6.70;99.90;;;;;;5009387;28;20038;-73
2021/01/07 07:31:45;;;;;;;11.93;7.20;;;6.70;99.90;;;;;;5012309;28;20034;-72
2021/01/07 07:34:13;;;;;;;8.80;6.22;;;6.60;99.90;;;;;;5004556;28;20041;-73
2021/01/07 07:36:40;;;;;;;13.98;7.43;;;6.60;99.90;;;;;;5011773;28;20022;-73
2021/01/07 07:39:07;;;;;;;11.30;6.43;;;6.50;99.90;;;;;;5013060;28;20386;-72
2021/01/07 07:41:44;;;;;;;9.20;7.00;;;6.40;99.90;;;;;;5011650;28;20026;-72
2021/01/07 07:44:10;;;;;;;10.07;6.93;;;6.50;99.90;;;;;;5006393;28;20014;-73
2021/01/07 07:46:37;;;;;;;11.38;8.07;;;6.50;99.90;;;;;;5012070;28;20375;-72
2021/01/07 07:49:04;;;;;;;9.32;7.75;;;6.60;99.90;;;;;;5009712;28;20014;-76
2021/01/07 07:51:31;;;;;;;10.60;7.80;;;6.70;99.90;;;;;;5011742;28;20042;-72
2021/01/07 07:54:08;;;;;;;10.90;7.43;;;6.70;99.90;;;;;;5010145;28;20060;-72
2021/01/07 07:56:34;;;;;;;9.45;7.97;;;6.70;99.90;;;;;;5011342;28;20076;-73
2021/01/07 07:59:05;;;;;;;10.55;7.28;;;6.60;99.90;;;;;;5011147;28;20025;-72
2021/01/07 08:01:53;;;;;;;11.82;7.88;;;6.60;99.90;;;;;;5010822;28;20036;-77
2021/01/07 08:04:21;;;;;;;14.07;9.23;;;6.70;99.90;;;;;;5004501;28;20030;-72
2021/01/07 08:06:48;;;;;;;8.40;6.65;;;6.70;99.90;;;;;;5009460;28;20516;-72
2021/01/07 08:09:22;;;;;;;15.32;8.38;;;6.60;99.90;;;;;;5011333;28;20641;-72
2021/01/07 08:11:54;;;;;;;10.48;7.57;;;6.60;99.90;;;;;;5010829;28;20034;-73
2021/01/07 08:14:24;;;;;;;13.07;7.68;;;6.80;99.90;;;;;;5011596;28;20074;-72
2021/01/07 08:16:58;;;;;;;12.88;8.77;;;6.90;99.90;;;;;;5011059;28;20037;-72
2021/01/07 08:19:31;;;;;;;19.27;8.82;;;7.00;99.90;;;;;;5012846;28;20033;-72
2021/01/07 08:21:58;;;;;;;13.25;8.15;;;7.10;99.90;;;;;;5011340;28;20034;-72
2021/01/07 08:24:27;;;;;;;10.00;7.75;;;7.10;99.90;;;;;;5015186;28;20022;-73
2021/01/07 08:26:57;;;;;;;12.40;8.38;;;7.20;99.90;;;;;;5014756;28;20026;-73
2021/01/07 08:29:26;;;;;;;18.77;10.38;;;7.20;99.90;;;;;;5014015;28;20184;-73
2021/01/07 08:31:53;;;;;;;12.13;8.52;;;7.50;99.90;;;;;;5014484;28;20096;-72
2021/01/07 08:34:20;;;;;;;9.93;7.57;;;7.70;99.90;;;;;;5013749;28;20021;-72
2021/01/07 08:36:46;;;;;;;11.80;8.65;;;7.90;99.90;;;;;;5011805;28;20096;-74
2021/01/07 08:39:15;;;;;;;10.60;7.93;;;8.00;99.90;;;;;;5014951;28;20054;-73
2021/01/07 08:41:45;;;;;;;10.30;7.68;;;7.90;99.90;;;;;;5012915;28;20043;-76
2021/01/07 08:44:11;;;;;;;14.43;9.45;;;7.80;99.90;;;;;;5012339;28;20029;-73
2021/01/07 08:46:42;;;;;;;13.02;9.60;;;7.70;99.90;;;;;;5010591;28;20032;-72
2021/01/07 08:49:10;;;;;;;10.18;7.57;;;7.70;99.90;;;;;;5008060;28;20390;-73
2021/01/07 08:51:46;;;;;;;9.73;7.28;;;7.70;99.90;;;;;;5014382;28;20390;-72
2021/01/07 08:54:17;;;;;;;11.43;8.27;;;7.80;99.90;;;;;;5008153;28;20509;-72
2021/01/07 08:56:45;;;;;;;10.05;8.48;;;7.90;99.90;;;;;;5014244;28;20513;-73
2021/01/07 08:59:27;;;;;;;14.95;9.10;;;7.90;99.90;;;;;;5014915;28;20064;-72
2021/01/07 09:02:07;;;;;;;19.90;10.70;;;8.00;99.90;;;;;;5014501;28;20045;-72
2021/01/07 09:04:40;;;;;;;17.40;9.70;;;7.90;99.90;;;;;;5014805;28;20076;-74
2021/01/07 09:07:15;;;;;;;13.57;8.70;;;8.00;99.90;;;;;;5009912;28;20032;-74
2021/01/07 09:09:41;;;;;;;12.57;7.65;;;8.10;99.90;;;;;;5014238;28;20069;-74
2021/01/07 09:12:11;;;;;;;10.32;9.23;;;8.20;99.90;;;;;;5013378;28;20688;-71
2021/01/07 09:15:10;;;;;;;14.95;9.35;;;8.20;99.90;;;;;;5012339;28;20255;-72
2021/01/07 09:17:46;;;;;;;15.63;8.48;;;8.10;99.90;;;;;;5011667;28;20062;-72
2021/01/07 09:20:32;;;;;;;11.82;9.32;;;8.00;99.90;;;;;;5013032;28;20649;-73
2021/01/07 09:23:07;;;;;;;13.13;9.88;;;7.90;99.90;;;;;;5006878;28;20073;-73
2021/01/07 09:25:33;;;;;;;13.57;8.15;;;8.10;99.90;;;;;;5014060;28;20017;-72
2021/01/07 09:28:00;;;;;;;12.50;9.15;;;8.20;99.90;;;;;;5013779;28;20112;-72
2021/01/07 09:30:26;;;;;;;9.88;8.25;;;8.40;99.90;;;;;;5012699;28;20044;-72
2021/01/07 09:32:55;;;;;;;13.82;10.48;;;8.50;99.90;;;;;;5014821;28;20109;-71
2021/01/07 09:35:24;;;;;;;17.17;9.25;;;8.50;99.90;;;;;;5013533;28;20025;-72
2021/01/07 09:37:56;;;;;;;15.73;9.65;;;8.50;99.90;;;;;;5012510;28;20026;-72
2021/01/07 09:40:22;;;;;;;20.23;14.80;;;8.60;99.90;;;;;;5013452;28;20044;-71
2021/01/07 09:42:48;;;;;;;27.33;14.57;;;8.50;99.90;;;;;;5014260;28;20022;-71
2021/01/07 09:45:15;;;;;;;18.02;12.77;;;8.50;99.90;;;;;;5010028;28;20169;-71
2021/01/07 09:47:41;;;;;;;18.65;14.23;;;8.60;99.90;;;;;;5012559;28;20029;-72
2021/01/07 09:50:09;;;;;;;19.63;10.25;;;8.60;99.90;;;;;;5011233;28;20091;-72
2021/01/07 09:52:35;;;;;;;14.90;10.50;;;8.40;99.90;;;;;;5012465;28;20037;-71
2021/01/07 09:55:03;;;;;;;12.60;10.77;;;8.30;99.90;;;;;;5013069;28;20026;-72
2021/01/07 09:57:28;;;;;;;11.05;9.80;;;8.20;99.90;;;;;;5012922;28;20097;-71
2021/01/07 09:59:54;;;;;;;15.82;10.63;;;8.20;99.90;;;;;;5011239;28;20025;-72
2021/01/07 10:02:20;;;;;;;18.00;10.43;;;8.20;99.90;;;;;;5012108;28;20018;-73
2021/01/07 10:04:46;;;;;;;12.77;10.13;;;8.30;99.90;;;;;;5013714;28;20034;-72
2021/01/07 10:07:13;;;;;;;14.38;10.40;;;8.10;99.90;;;;;;5012283;28;20076;-72
2021/01/07 10:09:39;;;;;;;15.55;10.30;;;8.00;99.90;;;;;;5012664;28;20034;-73
2021/01/07 10:12:05;;;;;;;14.60;11.38;;;7.90;99.90;;;;;;5013602;28;20056;-71
2021/01/07 10:14:33;;;;;;;18.92;10.32;;;8.00;99.90;;;;;;5012812;28;20026;-73
2021/01/07 10:17:01;;;;;;;9.90;8.80;;;8.00;99.90;;;;;;5012837;28;20021;-71
2021/01/07 10:19:29;;;;;;;14.13;9.00;;;8.00;99.90;;;;;;5011387;28;20049;-71
2021/01/07 10:21:57;;;;;;;10.15;8.27;;;7.90;99.90;;;;;;5012595;28;20048;-72
2021/01/07 10:24:23;;;;;;;16.45;9.63;;;7.90;99.90;;;;;;5008613;28;20022;-72
2021/01/07 10:26:52;;;;;;;9.48;8.48;;;8.20;99.90;;;;;;5012917;28;20105;-72
2021/01/07 10:29:18;;;;;;;16.02;10.73;;;8.50;99.90;;;;;;5011818;28;20018;-72
2021/01/07 10:31:44;;;;;;;21.20;11.68;;;8.70;99.90;;;;;;5012860;28;20025;-71
2021/01/07 10:34:10;;;;;;;13.07;10.25;;;8.80;99.90;;;;;;5011945;28;20655;-72
2021/01/07 10:36:36;;;;;;;10.50;8.13;;;8.70;99.90;;;;;;5011213;28;20029;-72
2021/01/07 10:39:04;;;;;;;11.52;9.07;;;8.80;99.90;;;;;;5012785;28;20026;-72
2021/01/07 10:41:30;;;;;;;11.00;8.32;;;8.60;99.90;;;;;;5012452;28;20041;-72
2021/01/07 10:44:00;;;;;;;11.85;7.50;;;8.60;99.90;;;;;;5010680;28;20060;-72
2021/01/07 10:46:31;;;;;;;9.38;8.35;;;8.70;99.90;;;;;;5012722;28;20672;-77
2021/01/07 10:48:57;;;;;;;8.57;6.97;;;8.90;99.90;;;;;;5014392;28;20508;-72
2021/01/07 10:51:31;;;;;;;11.60;8.40;;;9.00;99.90;;;;;;5017564;28;20026;-73
2021/01/07 10:54:18;;;;;;;10.18;7.47;;;9.10;99.90;;;;;;5013145;28;20026;-73
2021/01/07 10:57:21;;;;;;;9.77;7.20;;;9.20;99.90;;;;;;5013245;28;20116;-72
2021/01/07 10:59:57;;;;;;;8.57;7.30;;;9.30;99.90;;;;;;5012070;28;20034;-72
2021/01/07 11:02:31;;;;;;;10.07;6.93;;;9.40;99.90;;;;;;5010747;28;20029;-72
2021/01/07 11:05:15;;;;;;;7.25;5.57;;;9.40;99.90;;;;;;5012550;28;20196;-74
2021/01/07 11:08:14;;;;;;;10.30;6.43;;;9.40;99.90;;;;;;5012134;28;20052;-72
2021/01/07 11:10:48;;;;;;;8.43;6.03;;;9.50;99.90;;;;;;4959306;28;20401;-74
2021/01/07 11:13:16;;;;;;;9.25;6.03;;;9.40;99.90;;;;;;5007405;28;20026;-72
2021/01/07 11:15:44;;;;;;;8.68;5.65;;;9.50;99.90;;;;;;5012851;28;20080;-72
2021/01/07 11:18:21;;;;;;;12.30;5.93;;;9.50;99.90;;;;;;5011612;28;20125;-71
2021/01/07 11:20:58;;;;;;;8.15;7.25;;;9.40;99.90;;;;;;5012468;28;20026;-71
2021/01/07 11:23:26;;;;;;;14.52;7.78;;;9.30;99.90;;;;;;5011125;28;20613;-72
2021/01/07 11:25:52;;;;;;;10.55;7.10;;;9.50;99.90;;;;;;5009898;28;20088;-70
2021/01/07 11:28:19;;;;;;;13.93;8.88;;;9.70;99.90;;;;;;5011008;28;20076;-71
2021/01/07 11:30:47;;;;;;;11.15;8.30;;;9.90;99.90;;;;;;5009547;28;20111;-72
2021/01/07 11:33:17;;;;;;;8.65;7.50;;;9.90;99.90;;;;;;5011027;28;20040;-73
2021/01/07 11:35:45;;;;;;;9.35;8.27;;;10.00;99.90;;;;;;5010500;28;20113;-72
2021/01/07 11:38:24;;;;;;;13.82;7.60;;;10.10;99.90;;;;;;5011155;28;20058;-72
2021/01/07 11:41:06;;;;;;;12.50;8.88;;;10.20;99.90;;;;;;5010548;28;20371;-70
2021/01/07 11:43:46;;;;;;;9.05;8.18;;;10.20;99.90;;;;;;5005087;28;20120;-73
2021/01/07 11:46:17;;;;;;;13.55;7.95;;;10.20;99.90;;;;;;4999561;28;20022;-71
2021/01/07 11:48:56;;;;;;;10.25;8.40;;;10.20;99.90;;;;;;5009424;28;20034;-72
2021/01/07 11:51:22;;;;;;;11.82;8.63;;;10.30;99.90;;;;;;5010707;28;20026;-72
2021/01/07 11:53:50;;;;;;;10.73;8.23;;;10.30;99.90;;;;;;5015136;28;20081;-71
2021/01/07 11:56:17;;;;;;;9.63;7.97;;;10.30;99.90;;;;;;5015032;28;20064;-71
2021/01/07 11:58:45;;;;;;;14.88;8.73;;;10.30;99.90;;;;;;5016272;28;20024;-72
2021/01/07 12:01:10;;;;;;;10.63;8.90;;;10.40;99.90;;;;;;5015915;28;20025;-73
2021/01/07 12:03:37;;;;;;;12.45;9.15;;;10.40;99.90;;;;;;5014626;28;20041;-71
2021/01/07 12:06:04;;;;;;;11.18;8.68;;;10.60;99.90;;;;;;5012942;28;20050;-72
2021/01/07 12:08:36;;;;;;;11.23;8.55;;;10.80;99.90;;;;;;5015775;28;20022;-71
2021/01/07 12:11:03;;;;;;;9.20;8.27;;;10.70;99.90;;;;;;5013882;28;20052;-72
2021/01/07 12:13:46;;;;;;;13.45;8.15;;;10.70;99.90;;;;;;5015847;28;20030;-72
2021/01/07 12:16:20;;;;;;;18.17;10.25;;;10.60;99.90;;;;;;5006361;28;20062;-73
2021/01/07 12:18:50;;;;;;;13.82;9.75;;;10.60;99.90;;;;;;5013323;28;20045;-72
2021/01/07 12:21:18;;;;;;;14.05;9.45;;;10.60;99.90;;;;;;5016169;28;20109;-71
2021/01/07 12:23:45;;;;;;;13.88;9.88;;;10.50;99.90;;;;;;5015475;28;20033;-72
2021/01/07 12:26:13;;;;;;;12.63;8.90;;;10.40;99.90;;;;;;5015459;28;20021;-71
2021/01/07 12:28:41;;;;;;;11.05;8.52;;;10.20;99.90;;;;;;5015919;28;20026;-71
2021/01/07 12:31:08;;;;;;;13.77;8.63;;;10.10;99.90;;;;;;5014620;28;20040;-71
2021/01/07 12:33:58;;;;;;;12.85;8.93;;;10.10;99.90;;;;;;5016146;28;20025;-72
2021/01/07 12:36:43;;;;;;;12.20;9.52;;;10.00;99.90;;;;;;5013689;28;20523;-72
2021/01/07 12:39:15;;;;;;;14.68;9.32;;;9.90;99.90;;;;;;5008230;28;20048;-71
2021/01/07 12:41:54;;;;;;;12.35;10.48;;;9.70;99.90;;;;;;5016390;28;20467;-71
2021/01/07 12:44:24;;;;;;;11.68;9.82;;;9.60;99.90;;;;;;5000681;28;20386;-71
2021/01/07 12:46:55;;;;;;;16.65;11.40;;;9.50;99.90;;;;;;5013083;28;20478;-71
2021/01/07 12:49:22;;;;;;;11.82;9.10;;;9.50;99.90;;;;;;5015024;28;20022;-71
2021/01/07 12:51:51;;;;;;;10.18;8.65;;;9.50;99.90;;;;;;5015379;28;20107;-72
2021/01/07 12:54:17;;;;;;;10.25;9.25;;;9.50;99.90;;;;;;5015542;28;20389;-72
2021/01/07 12:56:55;;;;;;;10.75;9.65;;;9.50;99.90;;;;;;5009374;28;20053;-71
2021/01/07 12:59:25;;;;;;;11.70;8.77;;;9.40;99.90;;;;;;5013750;28;20092;-71